Tiempo atmosférico en la estación meteorológica de Cáseda, Navarra (440 m.)



Fecha
DESCASC
Temp. máxima en grados centígrados (hora)
DESCASC
Temp. mínima en grados centígrados (hora)
DESCASC
Temp. media en grados centígrados
DESCASC
Racha de viento máxima en m/sg (hora)
DESCASC
Velocidad máxima media en intervalos de 10 minutos(hora)
DESCASC
Precipitaciones diarias en mm
DESCASC
Precipitaciones de 00:00 a 06:00 en mm
DESCASC
Precipitaciones de 06:00 a 12:00 en mm
DESCASC
Precipitaciones de 12:00 a 18:00 en mm
DESCASC
Precipitaciones de 18:00 a 24:00 en mm
DESCASC
15-08-2019 27.5 (15:50) 16.6 (23:50) 22.1 10.83 (19:10) 5.56 (12:30) 0 0 0 0 0
14-08-2019 30.8 (16:40) 11.2 (00:00) 21 10 (18:50) 5.56 (19:50) 0 0 0 0 0
13-08-2019 24.7 (15:50) 14.7 (00:00) 19.7 12.22 (02:30) 6.11 (18:10) 0 0 0 0 0
12-08-2019 23 (15:30) 15.5 (00:00) 19.3 13.33 (15:00) 8.06 (14:50) 0 0 0 0 0
11-08-2019 28.1 (15:10) 17.9 (00:00) 23 11.11 (17:50) 5.56 (19:00) 0 0 0 0 0
10-08-2019 30.3 (17:40) 14.8 (00:00) 22.5 7.22 (18:30) 4.17 (18:10) 0.2 0 0 0 0.2
09-08-2019 37.6 (15:20) 19.9 (00:00) 28.7 15.56 (20:00) 8.89 (20:00) 3.4 0 0 0 3.4
08-08-2019 36 (18:20) 19.8 (00:00) 27.9 8.61 (14:40) 4.44 (23:59) 0 0 0 0 0
07-08-2019 33.5 (15:30) 20 (00:00) 26.8 8.06 (15:30) 4.72 (15:20) 0 0 0 0 0
06-08-2019 35.9 (16:20) 17.7 (00:00) 26.8 7.5 (13:30) 4.17 (13:30) 0 0 0 0 0
05-08-2019 35.8 (17:50) 18.1 (00:00) 26.9 7.5 (13:40) 4.17 (13:40) 0 0 0 0 0
04-08-2019 36.6 (17:00) 19 (00:00) 27.8 9.17 (18:50) 4.17 (23:20) 0 0 0 0 0
03-08-2019 36.1 (17:20) 15 (00:00) 25.5 7.5 (20:00) 3.89 (20:00) 0 0 0 0 0
02-08-2019 32.6 (16:50) 16.4 (00:00) 24.5 7.22 (17:00) 4.17 (10:30) 0 0 0 0 0
01-08-2019 32.5 (17:40) 15.8 (00:00) 24.2 8.89 (15:50) 5.28 (15:50) 3.2 2.8 0.4 0 0
31-07-2019 30.3 (18:00) 11.8 (00:00) 21 7.5 (15:00) 4.72 (15:00) 0 0 0 0 0
30-07-2019 24.1 (16:40) 15.8 (00:00) 20 12.78 (18:30) 6.94 (18:30) 0 0 0 0 0
29-07-2019 33.9 (16:50) 11.1 (00:00) 22.5 10.28 (15:30) 5.28 (19:10) 0 0 0 0 0
28-07-2019 25.2 (16:20) 14.2 (00:00) 19.7 10 (16:00) 5.28 (14:20) 0 0 0 0 0
27-07-2019 22.8 (14:20) 15.3 (00:00) 19 9.72 (15:30) 6.39 (15:10) 0 0 0 0 0
26-07-2019 29 (17:00) 19 (00:00) 24 10 (19:10) 5.28 (19:10) 0.2 0 0.2 0 0
25-07-2019 39.1 (16:50) 22.1 (00:00) 30.6 16.39 (18:30) 10.56 (18:30) 0.8 0 0 0 0.8
24-07-2019 39.2 (17:10) 19.8 (00:00) 29.5 10.28 (19:50) 6.39 (19:50) 0.4 0.4 0 0 0
23-07-2019 39.6 (17:40) 20.1 (00:00) 29.8 12.78 (21:30) 7.5 (21:40) 0 0 0 0 0
22-07-2019 39.1 (17:30) 19.3 (00:00) 29.2 9.72 (16:20) 5.28 (14:20) 0 0 0 0 0
21-07-2019 36.7 (18:00) 18.7 (00:00) 27.7 14.44 (15:40) 4.72 (15:10) 0 0 0 0 0
20-07-2019 36.7 (17:00) 19.3 (00:00) 28 7.78 (14:30) 4.17 (14:30) 0 0 0 0 0
19-07-2019 35.7 (18:00) 14.3 (00:00) 25 11.67 (22:00) 6.94 (22:00) 0.4 0 0 0 0.4

Gráficas

Temp. máximas Temp. mínimas Temp. medias Precipitaciones Rachas de viento máximas Velocidades máximas media en intervalos de 10 minutos

Datos horarios

Fecha y hora oficial Temperatura (ºC) Velocidad del viento (km/h) Dirección del viento Racha (km/h) Dirección de racha Precipitación (mm) Presión (hPa) Tendencia (hPa) Humedad (%)
2019-08-17 23:00:00 27.6 3 Este 14 Sudeste 0 -- -- 48
2019-08-17 22:00:00 28.7 7 Sudeste 13 Norte 0 -- -- 44
2019-08-17 21:00:00 32.4 5 Nordeste 10 Oeste 0 -- -- 36
2019-08-17 20:00:00 35.8 8 Oeste 18 Sur 0 -- -- 27
2019-08-17 19:00:00 36.7 8 Oeste 24 Sudoeste 0 -- -- 26
2019-08-17 18:00:00 36.8 5 Sur 24 Sur 0 -- -- 25
2019-08-17 17:00:00 37.1 8 Oeste 21 Sudoeste 0 -- -- 24
2019-08-17 16:00:00 36.5 8 Sudeste 27 Sur 0 -- -- 24
2019-08-17 15:00:00 35.6 10 Sur 27 Sur 0 -- -- 28
2019-08-17 14:00:00 34.9 15 Sudoeste 32 Sur 0 -- -- 33
2019-08-17 13:00:00 33.6 16 Sur 30 Sur 0 -- -- 38
2019-08-17 12:00:00 31.2 17 Sur 30 Sudoeste 0 -- -- 45
2019-08-17 11:00:00 26.2 5 Nordeste 11 Nordeste 0 -- -- 56
2019-08-17 10:00:00 22.3 4 Nordeste 7 Nordeste 0 -- -- 63
2019-08-17 09:00:00 19.5 2 Noroeste 5 Nordeste 0 -- -- 74
2019-08-17 08:00:00 17.5 0 Calma 5 Oeste 0 -- -- 80
2019-08-17 07:00:00 17.8 0 Calma 10 Sur 0 -- -- 79
2019-08-17 06:00:00 18.4 2 Sudoeste 8 Sudeste 0 -- -- 78
2019-08-17 05:00:00 19.6 5 Sudeste 11 Sudeste 0 -- -- 76
2019-08-17 04:00:00 20.7 9 Sudeste 18 Este 0 -- -- 72
2019-08-17 03:00:00 21.5 8 Sudeste 15 Este 0 -- -- 70
2019-08-17 02:00:00 22.4 8 Sudeste 15 Este 0 -- -- 66
2019-08-17 01:00:00 23.7 8 Sudeste 14 Este 0 -- -- 58
2019-08-17 00:00:00 24.3 9 Sudeste 12 Sudeste 0 -- -- 51
2019-08-16 23:00:00 25.8 2 Nordeste 9 Sur 0 -- -- 44
2019-08-16 22:00:00 27.1 3 Sudoeste 11 Sudoeste 0 -- -- 40
2019-08-16 21:00:00 30.4 9 Sur 12 Sur 0 -- -- 34
2019-08-16 20:00:00 33.5 8 Noroeste 13 Noroeste 0 -- -- 30
2019-08-16 19:00:00 33.6 3 Este 21 Noroeste 0 -- -- 28
2019-08-16 18:00:00 34.2 6 Noroeste 14 Noroeste 0 -- -- 28
2019-08-16 17:00:00 33.9 8 Norte 20 Sudoeste 0 -- -- 29
2019-08-16 16:00:00 33.9 10 Sur 20 Sur 0 -- -- 28
2019-08-16 15:00:00 32.3 6 Sudoeste 13 Sur 0 -- -- 27
2019-08-16 14:00:00 29.2 5 Este 13 Nordeste 0 -- -- 32
2019-08-16 13:00:00 26.4 6 Nordeste 14 Nordeste 0 -- -- 41
2019-08-16 12:00:00 22.8 5 Norte 9 Nordeste 0 -- -- 46
2019-08-16 11:00:00 18.9 4 Norte 9 Este 0 -- -- 57
2019-08-16 10:00:00 16 4 Nordeste 11 Nordeste 0 -- -- 67
2019-08-16 09:00:00 14.3 4 Este 9 Este 0 -- -- 73
2019-08-16 08:00:00 11.9 5 Sudeste 8 Sudeste 0 -- -- 86
2019-08-16 07:00:00 10.5 2 Noroeste 6 Sudoeste 0 -- -- 86
2019-08-16 06:00:00 11.9 2 Norte 15 Sudeste 0 -- -- 82
2019-08-16 05:00:00 13.1 9 Sudeste 14 Sudeste 0 -- -- 81
2019-08-16 04:00:00 13.9 4 Este 13 Este 0 -- -- 77
2019-08-16 03:00:00 14.9 10 Este 17 Este 0 -- -- 74
2019-08-16 02:00:00 15.9 10 Sudeste 18 Este 0 -- -- 67
2019-08-16 01:00:00 16.3 9 Este 18 Nordeste 0 -- -- 63
2019-08-16 00:00:00 17 10 Este 19 Este 0 -- -- 56
2019-08-15 23:00:00 17.5 3 Sudoeste 10 Sudeste 0 -- -- 58
2019-08-15 22:00:00 18.7 6 Sudeste 18 Norte 0 -- -- 57
2019-08-15 21:00:00 20.4 9 Norte 27 Norte 0 -- -- 54
2019-08-15 20:00:00 23.1 14 Norte 39 Noroeste 0 -- -- 48
2019-08-15 19:00:00 24.5 18 Norte 38 Norte 0 -- -- 45
2019-08-15 18:00:00 26.4 16 Nordeste 31 Norte 0 -- -- 41
2019-08-15 17:00:00 26.8 18 Norte 33 Nordeste 0 -- -- 41
2019-08-15 16:00:00 27 18 Noroeste 29 Noroeste 0 -- -- 40
2019-08-15 15:00:00 26.5 12 Norte 30 Noroeste 0 -- -- 41
2019-08-15 14:00:00 25.9 16 Norte 30 Noroeste 0 -- -- 43
2019-08-15 13:00:00 24.9 14 Norte 35 Noroeste 0 -- -- 47
2019-08-15 12:00:00 23.8 17 Norte 38 Noroeste 0 -- -- 53
2019-08-15 11:00:00 23.1 12 Norte 31 Nordeste 0 -- -- 58
2019-08-15 10:00:00 21.5 14 Noroeste 23 Noroeste 0 -- -- 67
2019-08-15 09:00:00 21.7 8 Norte 17 Noroeste 0 -- -- 65
2019-08-15 08:00:00 20 7 Noroeste 15 Noroeste 0 -- -- 72
2019-08-15 07:00:00 19.3 14 Oeste 21 Oeste 0 -- -- 75
2019-08-15 06:00:00 19 6 Noroeste 12 Noroeste 0 -- -- 77
2019-08-15 05:00:00 19.2 6 Oeste 16 Noroeste 0 -- -- 75
2019-08-15 04:00:00 19.4 3 Norte 12 Norte 0 -- -- 76
2019-08-15 03:00:00 19.6 6 Norte 12 Norte 0 -- -- 75
2019-08-15 02:00:00 19.6 6 Nordeste 15 Norte 0 -- -- 73
2019-08-15 01:00:00 20.4 7 Nordeste 18 Nordeste 0 -- -- 69
2019-08-15 00:00:00 21 9 Nordeste 28 Nordeste 0 -- -- 67
2019-08-14 23:00:00 21.7 6 Norte 24 Noroeste 0 -- -- 63
2019-08-14 22:00:00 22.6 10 Norte 29 Nordeste 0 -- -- 57
2019-08-14 21:00:00 24.2 16 Nordeste 33 Norte 0 -- -- 47
2019-08-14 20:00:00 26.5 19 Nordeste 31 Nordeste 0 -- -- 40
2019-08-14 19:00:00 28.2 18 Nordeste 36 Norte 0 -- -- 38
2019-08-14 18:00:00 29.8 15 Norte 32 Noroeste 0 -- -- 35
2019-08-14 17:00:00 30.4 17 Norte 31 Nordeste 0 -- -- 32
2019-08-14 16:00:00 30.4 13 Norte 32 Nordeste 0 -- -- 31
2019-08-14 15:00:00 30.1 15 Norte 26 Nordeste 0 -- -- 30
2019-08-14 14:00:00 28.3 7 Nordeste 12 Nordeste 0 -- -- 32
2019-08-14 13:00:00 25.4 5 Nordeste 10 Nordeste 0 -- -- 35
2019-08-14 12:00:00 22.2 5 Nordeste 11 Nordeste 0 -- -- 45
2019-08-14 11:00:00 19.1 4 Norte 10 Nordeste 0 -- -- 55
2019-08-14 10:00:00 16.4 4 Nordeste 11 Este 0 -- -- 66
2019-08-14 09:00:00 14.3 4 Este 9 Sudeste 0 -- -- 72
2019-08-14 08:00:00 12.4 3 Sudeste 9 Sudeste 0 -- -- 80
2019-08-14 07:00:00 11.3 5 Este 10 Este 0 -- -- 84
2019-08-14 06:00:00 11.8 2 Este 12 Este 0 -- -- 81
2019-08-14 05:00:00 12.9 5 Este 14 Este 0 -- -- 77
2019-08-14 04:00:00 13.8 8 Este 17 Sudeste 0 -- -- 73
2019-08-14 03:00:00 13.9 9 Sudeste 15 Sudeste 0 -- -- 73
2019-08-14 02:00:00 14.1 5 Sudeste 9 Sur 0 -- -- 69
2019-08-14 01:00:00 15.5 4 Sudeste 15 Este 0 -- -- 64
2019-08-14 00:00:00 15.9 5 Sudeste 11 Norte 0 -- -- 64
2019-08-13 23:00:00 16.8 3 Este 20 Norte 0 -- -- 61
2019-08-13 22:00:00 18 5 Noroeste 21 Nordeste 0 -- -- 58
2019-08-13 21:00:00 19.4 13 Norte 31 Norte 0 -- -- 53
2019-08-13 20:00:00 21.3 14 Norte 39 Norte 0 -- -- 47
2019-08-13 19:00:00 22.9 18 Noroeste 36 Norte 0 -- -- 43
2019-08-13 18:00:00 23.7 15 Norte 33 Norte 0 -- -- 40
2019-08-13 17:00:00 24.3 18 Noroeste 37 Noroeste 0 -- -- 38
2019-08-13 16:00:00 24.5 18 Noroeste 33 Noroeste 0 -- -- 38
2019-08-13 15:00:00 24.4 14 Noroeste 28 Noroeste 0 -- -- 39
2019-08-13 14:00:00 23.6 13 Noroeste 30 Noroeste 0 -- -- 37
2019-08-13 13:00:00 22.8 13 Norte 27 Nordeste 0 -- -- 40
2019-08-13 12:00:00 21.5 8 Norte 23 Noroeste 0 -- -- 43
2019-08-13 11:00:00 19.5 8 Norte 19 Noroeste 0 -- -- 48
2019-08-13 10:00:00 16.9 9 Noroeste 18 Norte 0 -- -- 54
2019-08-13 09:00:00 15.9 5 Norte 15 Norte 0 -- -- 57
2019-08-13 08:00:00 15 4 Nordeste 24 Norte 0 -- -- 62
2019-08-13 07:00:00 14.8 9 Norte 19 Norte 0 -- -- 62
2019-08-13 06:00:00 14.8 9 Norte 24 Norte 0 -- -- 65
2019-08-13 05:00:00 14.8 7 Noroeste 21 Noroeste 0 -- -- 65
2019-08-13 04:00:00 15.3 7 Norte 26 Noroeste 0 -- -- 62
2019-08-13 03:00:00 15.5 10 Norte 44 Norte 0 -- -- 67
2019-08-13 02:00:00 15.2 13 Norte 31 Norte 0 -- -- 70
2019-08-13 01:00:00 15.3 14 Norte 32 Norte 0 -- -- 67
2019-08-13 00:00:00 15.6 14 Norte 30 Norte 0 -- -- 66
2019-08-12 23:00:00 15.7 12 Norte 27 Nordeste 0 -- -- 65
2019-08-12 22:00:00 16.2 15 Norte 37 Noroeste 0 -- -- 63
2019-08-12 21:00:00 17.5 18 Norte 30 Norte 0 -- -- 60
2019-08-12 20:00:00 19.1 15 Norte 34 Norte 0 -- -- 56
2019-08-12 19:00:00 20 19 Norte 46 Norte 0 -- -- 51
2019-08-12 18:00:00 20.3 24 Norte 45 Norte 0 -- -- 48
2019-08-12 17:00:00 22.3 22 Norte 47 Nordeste 0 -- -- 45
2019-08-12 16:00:00 22.4 22 Norte 47 Norte 0 -- -- 45
2019-08-12 15:00:00 22.6 26 Noroeste 48 Norte 0 -- -- 45
2019-08-12 14:00:00 22.2 20 Noroeste 44 Noroeste 0 -- -- 45
2019-08-12 13:00:00 20.3 21 Noroeste 43 Noroeste 0 -- -- 51
2019-08-12 12:00:00 20.2 18 Norte 37 Noroeste 0 -- -- 52
2019-08-12 11:00:00 20.4 14 Norte 37 Noroeste 0 -- -- 55
2019-08-12 10:00:00 18 19 Noroeste 33 Norte 0 -- -- 61
2019-08-12 09:00:00 16.5 15 Noroeste 40 Norte 0 -- -- 66
2019-08-12 08:00:00 15.8 19 Noroeste 35 Noroeste 0 -- -- 71
2019-08-12 07:00:00 15.8 10 Noroeste 23 Noroeste 0 -- -- 74
2019-08-12 06:00:00 15.8 9 Noroeste 26 Norte 0 -- -- 72
2019-08-12 05:00:00 16.2 9 Noroeste 19 Noroeste 0 -- -- 74
2019-08-12 04:00:00 16.4 3 Norte 15 Norte 0 -- -- 73
2019-08-12 03:00:00 16.6 8 Norte 22 Noroeste 0 -- -- 74
2019-08-12 02:00:00 16.7 11 Oeste 21 Noroeste 0 -- -- 74
2019-08-12 01:00:00 17.4 3 Noroeste 19 Noroeste 0 -- -- 72
2019-08-12 00:00:00 17.9 8 Oeste 18 Oeste 0 -- -- 70
2019-08-11 23:00:00 18.8 6 Norte 24 Norte 0 -- -- 65
2019-08-11 22:00:00 19.5 12 Noroeste 32 Noroeste 0 -- -- 62
2019-08-11 21:00:00 21.3 8 Norte 23 Norte 0 -- -- 56
2019-08-11 20:00:00 23.1 14 Norte 33 Nordeste 0 -- -- 51
2019-08-11 19:00:00 23.7 20 Norte 36 Norte 0 -- -- 49
2019-08-11 18:00:00 25.8 18 Norte 40 Noroeste 0 -- -- 44
2019-08-11 17:00:00 27.2 17 Norte 31 Noroeste 0 -- -- 40
2019-08-11 16:00:00 27.6 12 Norte 26 Norte 0 -- -- 39
2019-08-11 15:00:00 27.8 11 Norte 26 Norte 0 -- -- 41
2019-08-11 14:00:00 26.9 13 Norte 22 Norte 0 -- -- 45
2019-08-11 13:00:00 25.9 11 Nordeste 22 Nordeste 0 -- -- 51
2019-08-11 12:00:00 24.5 12 Nordeste 30 Norte 0 -- -- 56
2019-08-11 11:00:00 22 10 Este 23 Nordeste 0 -- -- 66
2019-08-11 10:00:00 18.8 12 Este 24 Nordeste 0 -- -- 80
2019-08-11 09:00:00 18.6 5 Noroeste 27 Noroeste 0 -- -- 77
2019-08-11 08:00:00 19.1 4 Sudoeste 13 Sudeste 0 -- -- 77
2019-08-11 07:00:00 18.7 6 Sudeste 13 Sudeste 0 -- -- 77
2019-08-11 06:00:00 18.5 7 Sudeste 12 Este 0 -- -- 79
2019-08-11 05:00:00 18.5 8 Este 17 Este 0 -- -- 79
2019-08-11 04:00:00 18.7 7 Este 16 Este 0 -- -- 79
2019-08-11 03:00:00 18.5 6 Este 13 Este 0 -- -- 81
2019-08-11 02:00:00 18.5 8 Este 14 Este 0 -- -- 80
2019-08-11 01:00:00 19.2 2 Sudoeste 8 Nordeste 0 -- -- 77
2019-08-11 00:00:00 19.9 4 Nordeste 15 Norte 0.2 -- -- 74
2019-08-10 23:00:00 21.4 8 Nordeste 16 Nordeste 0 -- -- 68
2019-08-10 22:00:00 22.5 9 Nordeste 17 Nordeste 0 -- -- 63
2019-08-10 21:00:00 24.8 5 Nordeste 21 Noroeste 0 -- -- 55
2019-08-10 20:00:00 27.1 9 Norte 26 Norte 0 -- -- 48
2019-08-10 19:00:00 28.9 13 Norte 26 Norte 0 -- -- 45
2019-08-10 18:00:00 29.8 13 Norte 26 Norte 0 -- -- 38
2019-08-10 17:00:00 29.7 8 Norte 20 Nordeste 0 -- -- 35
2019-08-10 16:00:00 29.1 11 Norte 24 Norte 0 -- -- 38
2019-08-10 15:00:00 28.2 7 Norte 21 Nordeste 0 -- -- 42
2019-08-10 14:00:00 27.8 5 Norte 24 Noroeste 0 -- -- 45
2019-08-10 13:00:00 25.6 4 Nordeste 11 Nordeste 0 -- -- 57
2019-08-10 12:00:00 23.5 5 Nordeste 14 Este 0 -- -- 69
2019-08-10 11:00:00 21.7 7 Este 16 Este 0 -- -- 75
2019-08-10 10:00:00 20.3 6 Nordeste 14 Este 0 -- -- 79
2019-08-10 09:00:00 19 4 Este 9 Este 0 -- -- 84
2019-08-10 08:00:00 15.9 2 Este 5 Sudeste 0 -- -- 92
2019-08-10 07:00:00 15.1 2 Nordeste 8 Sudeste 0 -- -- 91
2019-08-10 06:00:00 15.6 7 Sudeste 10 Sudeste 0 -- -- 90
2019-08-10 05:00:00 15.8 0 Calma 5 Sudeste 0 -- -- 91
2019-08-10 04:00:00 16.4 3 Nordeste 7 Sur 0 -- -- 89
2019-08-10 03:00:00 17.2 0 Calma 6 Nordeste 0 -- -- 89
2019-08-10 02:00:00 17.8 7 Sur 12 Sur 0 -- -- 88
2019-08-10 01:00:00 19.2 3 Sudeste 8 Sur 0 -- -- 82
2019-08-10 00:00:00 19.9 5 Sur 17 Sur 0.2 -- -- 82
2019-08-09 23:00:00 20.8 8 Noroeste 37 Noroeste 0.6 -- -- 75
2019-08-09 22:00:00 23 11 Oeste 27 Oeste 0.2 -- -- 64
2019-08-09 21:00:00 23.3 13 Noroeste 34 Oeste 0.2 -- -- 79
2019-08-09 20:00:00 25.7 32 Oeste 56 Oeste 2.2 -- -- 71
2019-08-09 19:00:00 33.8 17 Noroeste 29 Oeste 0 -- -- 37
2019-08-09 18:00:00 35.5 18 Noroeste 30 Norte 0 -- -- 33
2019-08-09 17:00:00 35.2 13 Oeste 25 Sur 0 -- -- 31
2019-08-09 16:00:00 36.8 19 Sudoeste 33 Sur 0 -- -- 28
2019-08-09 15:00:00 37 17 Sudoeste 37 Sudoeste 0 -- -- 29
2019-08-09 14:00:00 35.6 14 Sudoeste 35 Sudoeste 0 -- -- 30
2019-08-09 13:00:00 34.9 19 Sur 33 Sudeste 0 -- -- 31
2019-08-09 12:00:00 34 17 Sur 35 Sudeste 0 -- -- 34
2019-08-09 11:00:00 32.6 18 Sur 36 Sur 0 -- -- 36
2019-08-09 10:00:00 30.8 19 Sur 33 Sur 0 -- -- 39
2019-08-09 09:00:00 26 6 Este 14 Sur 0 -- -- 53
2019-08-09 08:00:00 24.2 3 Este 6 Este 0 -- -- 57
2019-08-09 07:00:00 23.8 0 Calma 13 Sur 0 -- -- 56
2019-08-09 06:00:00 25.6 11 Sur 19 Sur 0 -- -- 51
2019-08-09 05:00:00 27.2 11 Sudeste 26 Sudeste 0 -- -- 46
2019-08-09 04:00:00 27.1 12 Sur 26 Sur 0 -- -- 46
2019-08-09 03:00:00 28.8 17 Sur 34 Sur 0 -- -- 43
2019-08-09 02:00:00 30.3 22 Sur 37 Sudeste 0 -- -- 39
2019-08-09 01:00:00 30.8 21 Sur 38 Sudeste 0 -- -- 37
2019-08-09 00:00:00 30.2 16 Sudeste 29 Sudeste 0 -- -- 38
2019-08-08 23:00:00 28.1 3 Noroeste 15 Sur 0 -- -- 45
2019-08-08 22:00:00 29.4 10 Sudoeste 12 Sur 0 -- -- 40
2019-08-08 21:00:00 32.8 9 Sur 17 Sudoeste 0 -- -- 35
2019-08-08 20:00:00 35.2 9 Sur 22 Sudoeste 0 -- -- 32
2019-08-08 19:00:00 35.2 6 Sur 26 Sudeste 0 -- -- 32
2019-08-08 18:00:00 35.6 11 Sur 24 Sur 0 -- -- 32
2019-08-08 17:00:00 35.3 10 Sur 27 Sur 0 -- -- 32
2019-08-08 16:00:00 34.4 4 Sur 31 Sur 0 -- -- 33
2019-08-08 15:00:00 34.4 14 Sudoeste 31 Sudoeste 0 -- -- 33
2019-08-08 14:00:00 33.4 10 Sur 27 Sur 0 -- -- 34
2019-08-08 13:00:00 32.3 14 Sur 26 Sudoeste 0 -- -- 37
2019-08-08 12:00:00 30.7 13 Sur 24 Sudeste 0 -- -- 38
2019-08-08 11:00:00 27.9 9 Sur 19 Sur 0 -- -- 44
2019-08-08 10:00:00 25 4 Norte 9 Nordeste 0 -- -- 58
2019-08-08 09:00:00 23.7 2 Sudoeste 6 Este 0 -- -- 60
2019-08-08 08:00:00 20.9 2 Sur 9 Sudoeste 0 -- -- 69
2019-08-08 07:00:00 19.9 4 Sudoeste 10 Oeste 0 -- -- 70
2019-08-08 06:00:00 20.7 6 Sudeste 10 Oeste 0 -- -- 66
2019-08-08 05:00:00 21.9 6 Sur 9 Sur 0 -- -- 60
2019-08-08 04:00:00 22.7 3 Sur 9 Sur 0 -- -- 57
2019-08-08 03:00:00 22.7 3 Sudeste 5 Sur 0 -- -- 62
2019-08-08 02:00:00 23.8 0 Calma 8 Oeste 0 -- -- 59
2019-08-08 01:00:00 24.1 7 Sudoeste 10 Sur 0 -- -- 56
2019-08-08 00:00:00 24.3 2 Nordeste 6 Sur 0 -- -- 57
2019-08-07 23:00:00 25.2 3 Sudoeste 6 Sudoeste 0 -- -- 51
2019-08-07 22:00:00 26.6 0 Calma 10 Sudoeste 0 -- -- 47
2019-08-07 21:00:00 28.3 5 Oeste 22 Oeste 0 -- -- 43
2019-08-07 20:00:00 29.6 12 Oeste 26 Sudoeste 0 -- -- 40
2019-08-07 19:00:00 30.7 10 Sudoeste 23 Sur 0 -- -- 38
2019-08-07 18:00:00 31 7 Oeste 19 Noroeste 0 -- -- 37
2019-08-07 17:00:00 31.1 11 Noroeste 25 Oeste 0 -- -- 36
2019-08-07 16:00:00 32.2 15 Noroeste 29 Oeste 0 -- -- 32
2019-08-07 15:00:00 32.9 13 Oeste 25 Noroeste 0 -- -- 30
2019-08-07 14:00:00 31.5 7 Norte 17 Nordeste 0 -- -- 38
2019-08-07 13:00:00 30.4 9 Nordeste 14 Nordeste 0 -- -- 40
2019-08-07 12:00:00 28.7 4 Este 16 Este 0 -- -- 46
2019-08-07 11:00:00 26.5 6 Este 15 Este 0 -- -- 54
2019-08-07 10:00:00 24.7 7 Este 18 Este 0 -- -- 60
2019-08-07 09:00:00 23.1 7 Este 12 Este 0 -- -- 67
2019-08-07 08:00:00 20.3 5 Este 12 Este 0 -- -- 77
2019-08-07 07:00:00 20.1 4 Este 10 Sudeste 0 -- -- 78
2019-08-07 06:00:00 20.2 4 Sudeste 17 Este 0 -- -- 77
2019-08-07 05:00:00 20.6 10 Este 20 Este 0 -- -- 74
2019-08-07 04:00:00 20.5 8 Este 13 Este 0 -- -- 75
2019-08-07 03:00:00 20.4 3 Sudeste 14 Noroeste 0 -- -- 77
2019-08-07 02:00:00 21.4 8 Nordeste 18 Norte 0 -- -- 75
2019-08-07 01:00:00 22.1 5 Norte 15 Nordeste 0 -- -- 73
2019-08-07 00:00:00 22.9 8 Nordeste 19 Este 0 -- -- 71
2019-08-06 23:00:00 24.3 4 Este 16 Nordeste 0 -- -- 67
2019-08-06 22:00:00 26 9 Norte 23 Nordeste 0 -- -- 62
2019-08-06 21:00:00 28.7 8 Nordeste 16 Nordeste 0 -- -- 53
2019-08-06 20:00:00 30.6 5 Noroeste 19 Noroeste 0 -- -- 47
2019-08-06 19:00:00 33 6 Noroeste 18 Oeste 0 -- -- 35
2019-08-06 18:00:00 34.3 6 Noroeste 25 Oeste 0 -- -- 31
2019-08-06 17:00:00 35.3 9 Noroeste 18 Noroeste 0 -- -- 29
2019-08-06 16:00:00 35.3 7 Sur 20 Sudoeste 0 -- -- 29
2019-08-06 15:00:00 33.7 6 Sur 22 Sudoeste 0 -- -- 36
2019-08-06 14:00:00 33.4 9 Sur 27 Sur 0 -- -- 38
2019-08-06 13:00:00 31.8 14 Sur 26 Sur 0 -- -- 42
2019-08-06 12:00:00 28.5 5 Norte 10 Norte 0 -- -- 51
2019-08-06 11:00:00 24.8 4 Nordeste 10 Nordeste 0 -- -- 62
2019-08-06 10:00:00 22.7 5 Nordeste 13 Este 0 -- -- 68
2019-08-06 09:00:00 21 8 Este 12 Este 0 -- -- 75
2019-08-06 08:00:00 18 2 Oeste 11 Sudeste 0 -- -- 85
2019-08-06 07:00:00 17.8 8 Este 12 Sudeste 0 -- -- 87
2019-08-06 06:00:00 18.1 5 Este 10 Nordeste 0 -- -- 85
2019-08-06 05:00:00 18.8 6 Sudeste 15 Este 0 -- -- 82
2019-08-06 04:00:00 19.6 8 Sudeste 15 Sudeste 0 -- -- 79
2019-08-06 03:00:00 20.1 8 Este 17 Este 0 -- -- 78
2019-08-06 02:00:00 20.6 9 Sudeste 19 Este 0 -- -- 75
2019-08-06 01:00:00 21.3 11 Sudeste 21 Este 0 -- -- 72
2019-08-06 00:00:00 22.2 9 Este 17 Este 0 -- -- 69
2019-08-05 23:00:00 23 8 Este 16 Este 0 -- -- 66
2019-08-05 22:00:00 24.1 8 Este 21 Nordeste 0 -- -- 65
2019-08-05 21:00:00 27.3 10 Nordeste 17 Nordeste 0 -- -- 56
2019-08-05 20:00:00 30.9 9 Nordeste 27 Norte 0 -- -- 46
2019-08-05 19:00:00 35.2 10 Norte 21 Noroeste 0 -- -- 37
2019-08-05 18:00:00 35.6 6 Nordeste 14 Nordeste 0 -- -- 28
2019-08-05 17:00:00 35.3 6 Sudeste 23 Sur 0 -- -- 29
2019-08-05 16:00:00 34.8 13 Sudoeste 27 Sudoeste 0 -- -- 34
2019-08-05 15:00:00 33.8 11 Sudoeste 27 Sudoeste 0 -- -- 37
2019-08-05 14:00:00 32.4 11 Sudoeste 27 Sur 0 -- -- 40
2019-08-05 13:00:00 29.6 6 Norte 12 Nordeste 0 -- -- 49
2019-08-05 12:00:00 26.8 7 Noroeste 12 Nordeste 0 -- -- 56
2019-08-05 11:00:00 24.4 5 Este 14 Este 0 -- -- 62
2019-08-05 10:00:00 22.7 9 Este 17 Este 0 -- -- 68
2019-08-05 09:00:00 20.7 6 Este 16 Nordeste 0 -- -- 76
2019-08-05 08:00:00 18.7 6 Sudeste 15 Este 0 -- -- 83
2019-08-05 07:00:00 18.1 7 Sudeste 13 Sudeste 0 -- -- 85
2019-08-05 06:00:00 18.5 8 Sudeste 18 Sudeste 0 -- -- 83
2019-08-05 05:00:00 18.8 9 Este 16 Este 0 -- -- 82
2019-08-05 04:00:00 19.2 10 Este 18 Este 0 -- -- 81
2019-08-05 03:00:00 19.7 7 Sudeste 18 Este 0 -- -- 79
2019-08-05 02:00:00 20 9 Sudeste 15 Sudeste 0 -- -- 78
2019-08-05 01:00:00 20.5 9 Sudeste 15 Nordeste 0 -- -- 76
2019-08-05 00:00:00 21.6 7 Nordeste 27 Este 0 -- -- 71
2019-08-04 23:00:00 22.4 4 Este 14 Nordeste 0 -- -- 67
2019-08-04 22:00:00 24 10 Nordeste 17 Nordeste 0 -- -- 63
2019-08-04 21:00:00 26.8 12 Nordeste 22 Nordeste 0 -- -- 55
2019-08-04 20:00:00 29.9 12 Nordeste 20 Norte 0 -- -- 49
2019-08-04 19:00:00 32.7 14 Norte 33 Norte 0 -- -- 43
2019-08-04 18:00:00 36.5 8 Nordeste 18 Nordeste 0 -- -- 25
2019-08-04 17:00:00 36.6 7 Nordeste 18 Oeste 0 -- -- 26
2019-08-04 16:00:00 35.5 6 Sur 22 Sur 0 -- -- 29
2019-08-04 15:00:00 34.8 14 Sur 27 Sur 0 -- -- 32
2019-08-04 14:00:00 33.2 11 Sur 27 Sur 0 -- -- 37
2019-08-04 13:00:00 30.6 8 Noroeste 15 Noroeste 0 -- -- 42
2019-08-04 12:00:00 28.4 5 Nordeste 13 Nordeste 0 -- -- 50
2019-08-04 11:00:00 25.8 5 Nordeste 12 Nordeste 0 -- -- 59
2019-08-04 10:00:00 24.1 9 Nordeste 14 Este 0 -- -- 66
2019-08-04 09:00:00 21.9 7 Este 19 Sudeste 0 -- -- 74
2019-08-04 08:00:00 19.6 7 Este 14 Este 0 -- -- 82
2019-08-04 07:00:00 19.3 0 Calma 14 Este 0 -- -- 80
2019-08-04 06:00:00 19.9 7 Sudeste 15 Este 0 -- -- 78
2019-08-04 05:00:00 20.9 5 Sudeste 11 Este 0 -- -- 74
2019-08-04 04:00:00 21.8 7 Sudeste 13 Sudeste 0 -- -- 70
2019-08-04 03:00:00 22.6 7 Sudeste 14 Este 0 -- -- 67
2019-08-04 02:00:00 23.3 7 Sudeste 15 Sudeste 0 -- -- 64
2019-08-04 01:00:00 24.2 4 Sudeste 15 Este 0 -- -- 61
2019-08-04 00:00:00 25.4 10 Sudeste 17 Este 0 -- -- 57
2019-08-03 23:00:00 26.9 5 Este 10 Norte 0 -- -- 52
2019-08-03 22:00:00 27.7 6 Este 25 Nordeste 0 -- -- 52
2019-08-03 21:00:00 30.5 5 Sur 26 Noroeste 0 -- -- 45
2019-08-03 20:00:00 34 14 Norte 27 Norte 0 -- -- 38
2019-08-03 19:00:00 35.8 7 Noroeste 14 Noroeste 0 -- -- 26
2019-08-03 18:00:00 36 5 Norte 14 Noroeste 0 -- -- 26
2019-08-03 17:00:00 35.7 9 Este 23 Sur 0 -- -- 26
2019-08-03 16:00:00 35.8 13 Sudoeste 23 Sudoeste 0 -- -- 27
2019-08-03 15:00:00 34.7 10 Sudoeste 23 Sur 0 -- -- 32
2019-08-03 14:00:00 32 5 Nordeste 13 Norte 0 -- -- 35
2019-08-03 13:00:00 29.1 5 Norte 11 Nordeste 0 -- -- 40
2019-08-03 12:00:00 25.9 4 Este 9 Nordeste 0 -- -- 43
2019-08-03 11:00:00 22.8 4 Nordeste 8 Nordeste 0 -- -- 52
2019-08-03 10:00:00 20.3 4 Nordeste 10 Este 0 -- -- 63
2019-08-03 09:00:00 18.2 3 Nordeste 5 Nordeste 0 -- -- 76
2019-08-03 08:00:00 16.1 0 Calma 4 Sudeste 0 -- -- 82
2019-08-03 07:00:00 15.3 4 Sudeste 10 Este 0 -- -- 83
2019-08-03 06:00:00 15.9 6 Sudeste 11 Sudeste 0 -- -- 81
2019-08-03 05:00:00 16.9 7 Sudeste 14 Este 0 -- -- 83
2019-08-03 04:00:00 17.4 7 Sudeste 14 Este 0 -- -- 81
2019-08-03 03:00:00 18.5 8 Sudeste 17 Este 0 -- -- 77
2019-08-03 02:00:00 19.2 8 Sudeste 21 Este 0 -- -- 75
2019-08-03 01:00:00 20.2 10 Sudeste 17 Sudeste 0 -- -- 68
2019-08-03 00:00:00 20.9 9 Sudeste 13 Sudeste 0 -- -- 61
2019-08-02 23:00:00 22.4 5 Sudeste 12 Nordeste 0 -- -- 56
2019-08-02 22:00:00 24.3 9 Nordeste 18 Nordeste 0 -- -- 50
2019-08-02 21:00:00 27 6 Noroeste 20 Noroeste 0 -- -- 44
2019-08-02 20:00:00 29.5 10 Norte 23 Norte 0 -- -- 36
2019-08-02 19:00:00 31.1 10 Norte 22 Norte 0 -- -- 35
2019-08-02 18:00:00 31.7 12 Norte 24 Norte 0 -- -- 34
2019-08-02 17:00:00 32.4 14 Norte 26 Norte 0 -- -- 30
2019-08-02 16:00:00 32 9 Nordeste 23 Norte 0 -- -- 35
2019-08-02 15:00:00 31.6 10 Nordeste 20 Norte 0 -- -- 37
2019-08-02 14:00:00 30 8 Norte 19 Nordeste 0 -- -- 40
2019-08-02 13:00:00 27.9 8 Noroeste 15 Noroeste 0 -- -- 44
2019-08-02 12:00:00 26.1 8 Este 19 Este 0 -- -- 53
2019-08-02 11:00:00 23.9 13 Nordeste 22 Este 0 -- -- 60
2019-08-02 10:00:00 21.6 10 Este 17 Este 0 -- -- 69
2019-08-02 09:00:00 19.7 9 Este 15 Este 0 -- -- 76
2019-08-02 08:00:00 18 7 Este 15 Este 0 -- -- 82
2019-08-02 07:00:00 16.5 7 Sudeste 14 Este 0 -- -- 87
2019-08-02 06:00:00 16.8 9 Este 13 Este 0 -- -- 85
2019-08-02 05:00:00 17.3 7 Este 12 Este 0 -- -- 84
2019-08-02 04:00:00 17.9 5 Sudeste 9 Este 0 -- -- 83
2019-08-02 03:00:00 18.6 4 Nordeste 10 Norte 0 -- -- 80
2019-08-02 02:00:00 19.2 4 Norte 12 Noroeste 0 -- -- 79
2019-08-02 01:00:00 19.6 6 Nordeste 10 Norte 0 -- -- 77
2019-08-02 00:00:00 20.2 8 Norte 19 Nordeste 0 -- -- 75
2019-08-01 23:00:00 20.8 6 Nordeste 12 Noroeste 0 -- -- 74
2019-08-01 22:00:00 21.4 5 Noroeste 18 Nordeste 0 -- -- 72
2019-08-01 21:00:00 23.3 9 Nordeste 24 Norte 0 -- -- 67
2019-08-01 20:00:00 26.7 7 Norte 32 Norte 0 -- -- 59
2019-08-01 19:00:00 31.1 15 Noroeste 29 Sudoeste 0 -- -- 46
2019-08-01 18:00:00 31.4 6 Noroeste 20 Sur 0 -- -- 42
2019-08-01 17:00:00 32.1 8 Sudoeste 30 Sudoeste 0 -- -- 41
2019-08-01 16:00:00 31.4 10 Sur 32 Sur 0 -- -- 43
2019-08-01 15:00:00 29.1 6 Norte 15 Norte 0 -- -- 49
2019-08-01 14:00:00 26.4 7 Norte 12 Nordeste 0 -- -- 59
2019-08-01 13:00:00 23.1 4 Nordeste 10 Noroeste 0 -- -- 69
2019-08-01 12:00:00 21 3 Este 13 Nordeste 0 -- -- 73
2019-08-01 11:00:00 19.1 8 Nordeste 21 Este 0 -- -- 82
2019-08-01 10:00:00 17.9 5 Este 15 Sudeste 0.4 -- -- 86
2019-08-01 09:00:00 17.2 6 Sudeste 21 Este 0 -- -- 88
2019-08-01 08:00:00 16.2 12 Sudeste 22 Sudeste 0 -- -- 89
2019-08-01 07:00:00 15.9 6 Sudeste 8 Sur 0 -- -- 91
2019-08-01 06:00:00 16.2 4 Nordeste 9 Este 2.8 -- -- 91
2019-08-01 05:00:00 17.3 0 Calma 6 Este 0 -- -- 76
2019-08-01 04:00:00 17.5 3 Este 13 Este 0 -- -- 74
2019-08-01 03:00:00 17.8 7 Sudeste 13 Sudeste 0 -- -- 73
2019-08-01 02:00:00 18.6 8 Este 17 Este 0 -- -- 70
2019-08-01 01:00:00 19.2 9 Sudeste 18 Sudeste 0 -- -- 67
2019-08-01 00:00:00 19.9 10 Este 17 Este 0 -- -- 65
2019-07-31 23:00:00 20.8 7 Sudeste 10 Nordeste 0 -- -- 61
2019-07-31 22:00:00 23.1 5 Nordeste 13 Nordeste 0 -- -- 54
2019-07-31 21:00:00 25.2 5 Este 15 Nordeste 0 -- -- 49
2019-07-31 20:00:00 28.1 11 Nordeste 19 Este 0 -- -- 41
2019-07-31 19:00:00 30.1 7 Nordeste 14 Norte 0 -- -- 31
2019-07-31 18:00:00 30.3 9 Sudoeste 19 Sur 0 -- -- 30
2019-07-31 17:00:00 29.5 10 Sur 23 Sur 0 -- -- 30
2019-07-31 16:00:00 28.5 8 Sur 25 Sur 0 -- -- 31
2019-07-31 15:00:00 28.2 17 Sur 27 Sur 0 -- -- 32
2019-07-31 14:00:00 26.5 6 Noroeste 15 Oeste 0 -- -- 36
2019-07-31 13:00:00 24.3 5 Norte 10 Nordeste 0 -- -- 39
2019-07-31 12:00:00 22.1 5 Norte 12 Este 0 -- -- 45
2019-07-31 11:00:00 19.4 6 Nordeste 13 Nordeste 0 -- -- 52
2019-07-31 10:00:00 17.2 8 Nordeste 21 Este 0 -- -- 61
2019-07-31 09:00:00 15.3 12 Este 20 Este 0 -- -- 67
2019-07-31 08:00:00 13.1 3 Este 13 Este 0 -- -- 76
2019-07-31 07:00:00 12.3 7 Este 21 Este 0 -- -- 78
2019-07-31 06:00:00 12.4 8 Este 19 Este 0 -- -- 78
2019-07-31 05:00:00 12.4 7 Este 14 Este 0 -- -- 78
2019-07-31 04:00:00 12.9 3 Sur 9 Oeste 0 -- -- 75
2019-07-31 03:00:00 13.8 3 Oeste 9 Oeste 0 -- -- 70
2019-07-31 02:00:00 14.5 4 Oeste 12 Norte 0 -- -- 67
2019-07-31 01:00:00 15.1 8 Noroeste 18 Noroeste 0 -- -- 66
2019-07-31 00:00:00 15.8 8 Noroeste 18 Norte 0 -- -- 63
2019-07-30 23:00:00 16.4 10 Norte 28 Norte 0 -- -- 59
2019-07-30 22:00:00 16.9 16 Norte 36 Norte 0 -- -- 59
2019-07-30 21:00:00 18 19 Norte 43 Norte 0 -- -- 55
2019-07-30 20:00:00 20 15 Norte 43 Norte 0 -- -- 52
2019-07-30 19:00:00 21.7 21 Norte 46 Norte 0 -- -- 47
2019-07-30 18:00:00 22.9 19 Norte 40 Norte 0 -- -- 45
2019-07-30 17:00:00 23.9 20 Norte 36 Norte 0 -- -- 41
2019-07-30 16:00:00 23.8 20 Norte 42 Norte 0 -- -- 42
2019-07-30 15:00:00 24 22 Norte 40 Nordeste 0 -- -- 43
2019-07-30 14:00:00 23.5 21 Norte 42 Noroeste 0 -- -- 44
2019-07-30 13:00:00 22.9 19 Noroeste 40 Norte 0 -- -- 48
2019-07-30 12:00:00 22 22 Norte 40 Norte 0 -- -- 50
2019-07-30 11:00:00 20.8 21 Norte 46 Norte 0 -- -- 51
2019-07-30 10:00:00 19.7 12 Norte 44 Norte 0 -- -- 57
2019-07-30 09:00:00 18.1 19 Norte 35 Norte 0 -- -- 62
2019-07-30 08:00:00 16.8 10 Norte 34 Norte 0 -- -- 66
2019-07-30 07:00:00 15.9 6 Norte 23 Norte 0 -- -- 70
2019-07-30 06:00:00 16.5 8 Norte 28 Noroeste 0 -- -- 69
2019-07-30 05:00:00 16.6 9 Norte 33 Norte 0 -- -- 71
2019-07-30 04:00:00 16.9 16 Norte 32 Norte 0 -- -- 68
2019-07-30 03:00:00 17.3 11 Norte 36 Nordeste 0 -- -- 73
2019-07-30 02:00:00 17.8 15 Norte 40 Norte 0 -- -- 69
2019-07-30 01:00:00 18.2 13 Norte 32 Norte 0 -- -- 68
2019-07-30 00:00:00 18.6 9 Norte 28 Noroeste 0 -- -- 67
2019-07-29 23:00:00 19 6 Oeste 19 Nordeste 0 -- -- 68
2019-07-29 22:00:00 19.9 6 Noroeste 30 Norte 0 -- -- 67
2019-07-29 21:00:00 22.1 5 Nordeste 27 Norte 0 -- -- 61
2019-07-29 20:00:00 25.6 12 Norte 33 Nordeste 0 -- -- 53
2019-07-29 19:00:00 28.9 13 Norte 35 Noroeste 0 -- -- 45
2019-07-29 18:00:00 32.8 6 Nordeste 28 Sudoeste 0 -- -- 27
2019-07-29 17:00:00 33.8 14 Oeste 32 Oeste 0 -- -- 25
2019-07-29 16:00:00 33.2 11 Sudoeste 37 Oeste 0 -- -- 25
2019-07-29 15:00:00 32 7 Sudeste 23 Sur 0 -- -- 25
2019-07-29 14:00:00 31.4 13 Sudoeste 26 Sudoeste 0 -- -- 26
2019-07-29 13:00:00 28.9 10 Sur 18 Sur 0 -- -- 32
2019-07-29 12:00:00 24.8 4 Nordeste 10 Nordeste 0 -- -- 42
2019-07-29 11:00:00 21.5 3 Nordeste 8 Nordeste 0 -- -- 49
2019-07-29 10:00:00 18.4 4 Norte 10 Nordeste 0 -- -- 62
2019-07-29 09:00:00 16.1 3 Nordeste 8 Nordeste 0 -- -- 70
2019-07-29 08:00:00 13.2 0 Calma 7 Sudoeste 0 -- -- 80
2019-07-29 07:00:00 11.2 3 Sudoeste 6 Sudoeste 0 -- -- 84
2019-07-29 06:00:00 11.3 2 Sudoeste 6 Oeste 0 -- -- 81
2019-07-29 05:00:00 12 0 Calma 4 Este 0 -- -- 82
2019-07-29 04:00:00 12.5 3 Este 4 Nordeste 0 -- -- 78
2019-07-29 03:00:00 13.2 3 Oeste 9 Sudoeste 0 -- -- 77
2019-07-29 02:00:00 14.4 4 Sudoeste 12 Sudoeste 0 -- -- 71
2019-07-29 01:00:00 16 4 Este 9 Sudeste 0 -- -- 67
2019-07-29 00:00:00 17.7 5 Este 16 Este 0 -- -- 61
2019-07-28 23:00:00 17.9 4 Sur 11 Nordeste 0 -- -- 60
2019-07-28 22:00:00 19.7 4 Nordeste 21 Nordeste 0 -- -- 54
2019-07-28 21:00:00 21.6 11 Norte 28 Nordeste 0 -- -- 49
2019-07-28 20:00:00 23.2 15 Norte 32 Norte 0 -- -- 46
2019-07-28 19:00:00 24.3 16 Norte 32 Norte 0 -- -- 41
2019-07-28 18:00:00 24.8 18 Norte 32 Noroeste 0 -- -- 40
2019-07-28 17:00:00 24.9 17 Norte 36 Noroeste 0 -- -- 41
2019-07-28 16:00:00 24.8 19 Norte 36 Noroeste 0 -- -- 39
2019-07-28 15:00:00 25.1 14 Norte 34 Noroeste 0 -- -- 43
2019-07-28 14:00:00 23.9 14 Norte 35 Noroeste 0 -- -- 44
2019-07-28 13:00:00 22.6 14 Norte 33 Noroeste 0 -- -- 50
2019-07-28 12:00:00 22.5 15 Norte 30 Norte 0 -- -- 50
2019-07-28 11:00:00 19.1 17 Noroeste 35 Noroeste 0 -- -- 61
2019-07-28 10:00:00 18.1 16 Norte 32 Noroeste 0 -- -- 65
2019-07-28 09:00:00 17.4 16 Noroeste 27 Noroeste 0 -- -- 68
2019-07-28 08:00:00 15.7 12 Noroeste 22 Noroeste 0 -- -- 73
2019-07-28 07:00:00 14.3 11 Noroeste 19 Norte 0 -- -- 78
2019-07-28 06:00:00 15.3 9 Nordeste 21 Noroeste 0 -- -- 77
2019-07-28 05:00:00 15.3 5 Norte 21 Noroeste 0 -- -- 75
2019-07-28 04:00:00 15.7 7 Norte 22 Noroeste 0 -- -- 74
2019-07-28 03:00:00 15.3 12 Noroeste 19 Noroeste 0 -- -- 75
2019-07-28 02:00:00 15.5 10 Noroeste 21 Noroeste 0 -- -- 75
2019-07-28 01:00:00 15.4 8 Nordeste 28 Noroeste 0 -- -- 75
2019-07-28 00:00:00 15.4 10 Norte 27 Noroeste 0 -- -- 75
2019-07-27 23:00:00 15.8 12 Noroeste 27 Norte 0 -- -- 72
2019-07-26 12:00:00 -- -- -- -- -- -- -- -- --
2019-07-26 11:00:00 22.4 3 Norte 25 Este 0 -- -- 77
2019-07-26 10:00:00 21.6 12 Este 21 Este 0 -- -- 81
2019-07-26 09:00:00 21.1 7 Este 15 Este 0 -- -- 80
2019-07-26 08:00:00 20.8 6 Este 15 Este 0.2 -- -- 82
2019-07-26 07:00:00 21 5 Nordeste 15 Nordeste 0 -- -- 78
2019-07-26 06:00:00 20.8 3 Este 9 Sudeste 0 -- -- 80
2019-07-26 05:00:00 21.1 4 Este 11 Sudeste 0 -- -- 78
2019-07-26 04:00:00 21.8 6 Sudeste 17 Sudeste 0 -- -- 76
2019-07-26 03:00:00 22.6 8 Sudeste 17 Este 0 -- -- 73
2019-07-26 02:00:00 23 9 Sudeste 15 Este 0 -- -- 70
2019-07-26 01:00:00 25.2 10 Este 15 Sudeste 0 -- -- 58
2019-07-26 00:00:00 28.2 9 Noroeste 22 Norte 0 -- -- 45
2019-07-25 23:00:00 31.9 19 Sur 52 Sudeste 0 -- -- 27
2019-07-25 22:00:00 30.7 23 Sur 41 Sur 0 -- -- 31
2019-07-25 21:00:00 32.6 14 Sur 37 Sur 0 -- -- 27
2019-07-25 20:00:00 33.2 18 Sur 40 Sudoeste 0.2 -- -- 29
2019-07-25 19:00:00 31.5 21 Sur 59 Sudoeste 0.6 -- -- 36
2019-07-25 18:00:00 37.8 17 Sudeste 32 Sudeste 0 -- -- 23
2019-07-25 17:00:00 39 14 Sur 42 Sur 0 -- -- 22
2019-07-25 16:00:00 38 28 Sur 44 Sudoeste 0 -- -- 23
2019-07-25 15:00:00 37.8 23 Sur 40 Sur 0 -- -- 24
2019-07-25 14:00:00 37.3 20 Sur 41 Sur 0 -- -- 24
2019-07-25 13:00:00 36.4 21 Sur 33 Sudoeste 0 -- -- 26
2019-07-25 12:00:00 35.3 16 Sur 32 Sur 0 -- -- 27
2019-07-25 11:00:00 32.4 5 Nordeste 10 Este 0 -- -- 35
2019-07-25 10:00:00 29 3 Noroeste 6 Noroeste 0 -- -- 39
2019-07-25 09:00:00 26 2 Norte 7 Sudoeste 0 -- -- 49
2019-07-25 08:00:00 23 0 Calma 10 Sudoeste 0 -- -- 53
2019-07-25 07:00:00 22.1 2 Sudoeste 8 Sur 0 -- -- 51
2019-07-25 06:00:00 22.5 0 Calma 7 Sudoeste 0 -- -- 50
2019-07-25 05:00:00 22.8 4 Oeste 10 Sur 0 -- -- 50
2019-07-25 04:00:00 24.5 9 Sur 13 Sur 0 -- -- 45
2019-07-25 03:00:00 25.4 6 Sudoeste 12 Sur 0 -- -- 41
2019-07-25 02:00:00 26 6 Sudoeste 12 Sudoeste 0 -- -- 40
2019-07-25 01:00:00 28 6 Sudeste 11 Sur 0 -- -- 36
2019-07-25 00:00:00 28.8 4 Oeste 8 Norte 0 -- -- 35
2019-07-24 23:00:00 29.5 6 Noroeste 18 Sudeste 0 -- -- 35
2019-07-24 22:00:00 31.8 6 Sudeste 14 Sudeste 0 -- -- 29
2019-07-24 21:00:00 34.5 8 Sur 34 Sur 0 -- -- 27
2019-07-24 20:00:00 37.2 19 Sur 37 Sur 0 -- -- 24
2019-07-24 19:00:00 38.4 17 Sur 34 Sudeste 0 -- -- 19
2019-07-24 18:00:00 39 19 Sur 31 Sur 0 -- -- 20
2019-07-24 17:00:00 39.1 14 Sudoeste 34 Sur 0 -- -- 21
2019-07-24 16:00:00 38.8 18 Sudoeste 33 Sur 0 -- -- 21
2019-07-24 15:00:00 38.2 20 Sudoeste 36 Sudoeste 0 -- -- 23
2019-07-24 14:00:00 36.4 9 Oeste 21 Oeste 0 -- -- 26
2019-07-24 13:00:00 33.6 7 Sur 25 Sur 0 -- -- 29
2019-07-24 12:00:00 31.6 5 Nordeste 9 Nordeste 0 -- -- 35
2019-07-24 11:00:00 28.7 4 Nordeste 8 Nordeste 0 -- -- 41
2019-07-24 10:00:00 25.4 4 Noroeste 7 Noroeste 0 -- -- 49
2019-07-24 09:00:00 23.1 3 Este 5 Este 0 -- -- 54
2019-07-24 08:00:00 21.2 3 Este 8 Sur 0 -- -- 66
2019-07-24 07:00:00 19.9 2 Este 5 Sudoeste 0 -- -- 68
2019-07-24 06:00:00 20.4 4 Sur 10 Sur 0 -- -- 66
2019-07-24 05:00:00 21.5 4 Sur 8 Sudoeste 0 -- -- 63
2019-07-24 04:00:00 23.3 3 Sudoeste 10 Sudeste 0 -- -- 56
2019-07-24 03:00:00 24.5 5 Sudeste 17 Sudeste 0.2 -- -- 51
2019-07-24 02:00:00 25 6 Oeste 27 Oeste 0 -- -- 52
2019-07-24 01:00:00 24.1 10 Sudoeste 16 Sudoeste 0.2 -- -- 65
2019-07-24 00:00:00 26.6 4 Sudoeste 31 Nordeste 0 -- -- 45
2019-07-23 23:00:00 27.8 14 Este 22 Este 0 -- -- 41
2019-07-23 22:00:00 29.9 19 Oeste 46 Noroeste 0 -- -- 36
2019-07-23 21:00:00 35.3 10 Sudeste 31 Sur 0 -- -- 22
2019-07-23 20:00:00 37.8 12 Sur 28 Sur 0 -- -- 20
2019-07-23 19:00:00 38.8 15 Sur 30 Sur 0 -- -- 19
2019-07-23 18:00:00 39.5 6 Sur 26 Sur 0 -- -- 19
2019-07-23 17:00:00 38.8 17 Sudoeste 36 Sudoeste 0 -- -- 20
2019-07-23 16:00:00 39.3 21 Sur 39 Sudoeste 0 -- -- 20
2019-07-23 15:00:00 38.7 22 Sur 36 Sur 0 -- -- 22
2019-07-23 14:00:00 38.1 18 Sudoeste 32 Sur 0 -- -- 22
2019-07-23 13:00:00 36.9 16 Sur 31 Sudoeste 0 -- -- 23
2019-07-23 12:00:00 35.5 18 Sur 29 Sur 0 -- -- 24
2019-07-23 11:00:00 30.8 5 Nordeste 9 Nordeste 0 -- -- 35
2019-07-23 10:00:00 27.5 4 Nordeste 6 Este 0 -- -- 37
2019-07-23 09:00:00 23.8 3 Nordeste 5 Nordeste 0 -- -- 46
2019-07-23 08:00:00 21.3 2 Este 5 Nordeste 0 -- -- 52
2019-07-23 07:00:00 20.3 3 Este 8 Sur 0 -- -- 50
2019-07-23 06:00:00 21.9 2 Sur 6 Sur 0 -- -- 44
2019-07-23 05:00:00 23.2 3 Sudoeste 13 Sudoeste 0 -- -- 42
2019-07-23 04:00:00 24.4 5 Oeste 14 Oeste 0 -- -- 41
2019-07-23 03:00:00 25.5 4 Sur 12 Sudoeste 0 -- -- 40
2019-07-23 02:00:00 25.7 7 Oeste 9 Oeste 0 -- -- 41
2019-07-23 01:00:00 26.9 3 Sudeste 9 Sudoeste 0 -- -- 38
2019-07-23 00:00:00 27.8 3 Oeste 11 Noroeste 0 -- -- 35
2019-07-22 23:00:00 29.4 4 Noroeste 10 Este 0 -- -- 33
2019-07-22 22:00:00 32.3 9 Sudeste 15 Sur 0 -- -- 27
2019-07-22 21:00:00 34.9 9 Sudeste 21 Sudeste 0 -- -- 24
2019-07-22 20:00:00 37.1 11 Sudeste 25 Sur 0 -- -- 22
2019-07-22 19:00:00 37.9 14 Sur 32 Sur 0 -- -- 21
2019-07-22 18:00:00 38.6 17 Sur 35 Sudoeste 0 -- -- 19
2019-07-22 17:00:00 39 15 Sur 35 Sur 0 -- -- 20
2019-07-22 16:00:00 38.5 9 Sur 32 Sudoeste 0 -- -- 22
2019-07-22 15:00:00 37.7 14 Sudoeste 32 Sudoeste 0 -- -- 23
2019-07-22 14:00:00 36.5 15 Sudoeste 34 Sur 0 -- -- 25
2019-07-22 13:00:00 34.3 12 Sudoeste 22 Sudoeste 0 -- -- 31
2019-07-22 12:00:00 31.1 5 Nordeste 13 Norte 0 -- -- 43
2019-07-22 11:00:00 28.2 4 Nordeste 11 Nordeste 0 -- -- 53
2019-07-22 10:00:00 25.7 4 Nordeste 10 Nordeste 0 -- -- 64
2019-07-22 09:00:00 24 4 Nordeste 9 Sudeste 0 -- -- 72
2019-07-22 08:00:00 20.8 0 Calma 6 Sudeste 0 -- -- 82
2019-07-22 07:00:00 19.4 3 Sudeste 6 Nordeste 0 -- -- 85
2019-07-22 06:00:00 20.1 0 Calma 10 Sur 0 -- -- 83
2019-07-22 05:00:00 20.6 9 Sur 12 Sur 0 -- -- 81
2019-07-22 04:00:00 21.5 6 Sur 10 Sudeste 0 -- -- 78
2019-07-22 03:00:00 21.8 4 Sur 8 Sur 0 -- -- 76
2019-07-22 02:00:00 22.7 6 Sur 14 Noroeste 0 -- -- 73
2019-07-22 01:00:00 23.5 5 Este 24 Este 0 -- -- 70
2019-07-22 00:00:00 24.5 9 Sudeste 20 Este 0 -- -- 67
2019-07-21 23:00:00 25.5 8 Sudeste 17 Nordeste 0 -- -- 64
2019-07-21 22:00:00 27.4 8 Nordeste 15 Nordeste 0 -- -- 57
2019-07-21 21:00:00 30 7 Este 18 Nordeste 0 -- -- 49
2019-07-21 20:00:00 35.3 9 Sur 19 Sudeste 0 -- -- 32
2019-07-21 19:00:00 36.1 11 Sur 23 Sur 0 -- -- 31
2019-07-21 18:00:00 36.7 9 Sudoeste 32 Sudoeste 0 -- -- 29
2019-07-21 17:00:00 36.3 14 Sur 27 Sur 0 -- -- 30
2019-07-21 16:00:00 35.3 9 Sur 52 Sudeste 0 -- -- 31
2019-07-21 15:00:00 34.4 12 Sudoeste 26 Sudoeste 0 -- -- 34
2019-07-21 14:00:00 33.1 10 Sudeste 30 Nordeste 0 -- -- 34
2019-07-21 13:00:00 30.3 5 Nordeste 12 Norte 0 -- -- 46
2019-07-21 12:00:00 27.8 4 Norte 11 Nordeste 0 -- -- 54
2019-07-21 11:00:00 25.2 4 Nordeste 11 Nordeste 0 -- -- 61
2019-07-21 10:00:00 23.2 5 Nordeste 10 Nordeste 0 -- -- 68
2019-07-21 09:00:00 20.7 6 Este 12 Este 0 -- -- 76
2019-07-21 08:00:00 19.6 8 Sudeste 14 Este 0 -- -- 80
2019-07-21 07:00:00 18.7 8 Sudeste 15 Sudeste 0 -- -- 83
2019-07-21 06:00:00 18.8 10 Sudeste 14 Sudeste 0 -- -- 82
2019-07-21 05:00:00 19.2 7 Sudeste 15 Este 0 -- -- 81
2019-07-21 04:00:00 19.4 6 Sudeste 11 Sudeste 0 -- -- 80
2019-07-21 03:00:00 20 6 Sudeste 13 Sudeste 0 -- -- 78
2019-07-21 02:00:00 20.8 6 Este 14 Este 0 -- -- 76
2019-07-21 01:00:00 21.6 4 Sudeste 11 Nordeste 0 -- -- 74
2019-07-21 00:00:00 22.3 6 Nordeste 10 Norte 0 -- -- 71
2019-07-20 23:00:00 23.5 5 Norte 14 Norte 0 -- -- 67
2019-07-20 22:00:00 25 6 Nordeste 14 Nordeste 0 -- -- 62
2019-07-20 21:00:00 26.6 9 Este 18 Nordeste 0 -- -- 58
2019-07-20 20:00:00 29 10 Nordeste 23 Nordeste 0 -- -- 53
2019-07-20 19:00:00 31.4 12 Nordeste 24 Norte 0 -- -- 47
2019-07-20 18:00:00 34.8 14 Norte 26 Norte 0 -- -- 39
2019-07-20 17:00:00 36.7 6 Oeste 21 Oeste 0 -- -- 28
2019-07-20 16:00:00 36 11 Sur 23 Sur 0 -- -- 29
2019-07-20 15:00:00 35.3 10 Sudoeste 28 Sur 0 -- -- 30
2019-07-20 14:00:00 33.9 9 Sur 25 Sur 0 -- -- 33
2019-07-20 13:00:00 31 7 Norte 13 Norte 0 -- -- 44
2019-07-20 12:00:00 29 5 Nordeste 12 Nordeste 0 -- -- 48
2019-07-20 11:00:00 26.7 6 Nordeste 10 Norte 0 -- -- 53
2019-07-20 10:00:00 24.5 7 Nordeste 10 Nordeste 0 -- -- 61
2019-07-20 09:00:00 21.7 3 Este 5 Sur 0 -- -- 66
2019-07-20 08:00:00 19.5 3 Sudeste 6 Este 0 -- -- 73
2019-07-20 07:00:00 19.5 0 Calma 8 Sudeste 0 -- -- 70
2019-07-20 06:00:00 20.2 5 Noroeste 17 Sur 0 -- -- 71
2019-07-20 05:00:00 21.5 4 Sur 12 Sudoeste 0 -- -- 66
2019-07-20 04:00:00 22.3 5 Sudeste 11 Sudoeste 0 -- -- 69
2019-07-20 03:00:00 23.2 11 Sudoeste 16 Sudoeste 0 -- -- 68
2019-07-20 02:00:00 23.8 4 Sudoeste 9 Oeste 0 -- -- 62
2019-07-20 01:00:00 24.2 3 Oeste 14 Oeste 0 -- -- 64
2019-07-20 00:00:00 25.5 6 Oeste 9 Oeste 0.4 -- -- 56
2019-07-19 23:00:00 29.2 7 Sur 36 Sur 0 -- -- 46
2019-07-19 22:00:00 29.9 25 Sur 42 Sur 0 -- -- 37
2019-07-19 21:00:00 31 17 Sur 27 Sur 0 -- -- 36
2019-07-19 20:00:00 32.3 16 Sudoeste 31 Sudoeste 0 -- -- 35
2019-07-19 19:00:00 35.4 16 Sudoeste 27 Sudoeste 0 -- -- 31
2019-07-19 18:00:00 35.7 7 Sudoeste 21 Sudoeste 0 -- -- 27
2019-07-19 17:00:00 35.3 15 Sur 30 Sur 0 -- -- 28
2019-07-19 16:00:00 34.1 13 Sur 30 Sur 0 -- -- 33
2019-07-19 15:00:00 33.2 15 Sudoeste 30 Oeste 0 -- -- 35
2019-07-19 14:00:00 31.4 14 Sudoeste 28 Oeste 0 -- -- 40
2019-07-19 13:00:00 27.8 5 Nordeste 10 Norte 0 -- -- 48
2019-07-19 12:00:00 24.8 5 Nordeste 10 Nordeste 0 -- -- 52
2019-07-19 11:00:00 21.7 4 Norte 10 Nordeste 0 -- -- 58
2019-07-19 10:00:00 19.6 5 Nordeste 10 Nordeste 0 -- -- 64
2019-07-19 09:00:00 17.8 3 Nordeste 10 Este 0 -- -- 70
2019-07-19 08:00:00 16 5 Este 9 Este 0 -- -- 76
2019-07-19 07:00:00 14.3 4 Sudeste 12 Este 0 -- -- 80
2019-07-19 06:00:00 15.1 5 Sudeste 18 Este 0 -- -- 77
2019-07-19 05:00:00 15.8 8 Sudeste 17 Este 0 -- -- 74
2019-07-19 04:00:00 16.1 11 Este 20 Este 0 -- -- 74
2019-07-19 03:00:00 16.8 9 Sudeste 21 Sudeste 0 -- -- 69
2019-07-19 02:00:00 17.6 12 Sudeste 17 Sudeste 0 -- -- 63
2019-07-19 01:00:00 18.5 8 Sudeste 21 Nordeste 0 -- -- 63
2019-07-19 00:00:00 19.3 12 Norte 19 Nordeste 0 -- -- 61